sensor_id;sensor_type;location;lat;lon;timestamp;temperature;humidity
27759;DHT22;15148;48.972;12.794;2023-09-19T00:02:09;15.20;99.90
27759;DHT22;15148;48.972;12.794;2023-09-19T00:07:11;15.20;99.90
27759;DHT22;15148;48.972;12.794;2023-09-19T00:12:13;15.20;99.90
27759;DHT22;15148;48.972;12.794;2023-09-19T00:17:15;15.10;99.90
27759;DHT22;15148;48.972;12.794;2023-09-19T00:22:17;15.20;99.90
27759;DHT22;15148;48.972;12.794;2023-09-19T00:27:20;15.20;99.90
27759;DHT22;15148;48.972;12.794;2023-09-19T00:32:22;15.20;99.90
27759;DHT22;15148;48.972;12.794;2023-09-19T00:37:24;15.20;99.90
27759;DHT22;15148;48.972;12.794;2023-09-19T00:42:26;15.10;99.90
27759;DHT22;15148;48.972;12.794;2023-09-19T00:47:28;15.20;99.90
27759;DHT22;15148;48.972;12.794;2023-09-19T00:52:31;15.20;99.90
27759;DHT22;15148;48.972;12.794;2023-09-19T00:57:34;15.10;99.90
27759;DHT22;15148;48.972;12.794;2023-09-19T01:02:36;15.10;99.90
27759;DHT22;15148;48.972;12.794;2023-09-19T01:07:39;15.10;99.90
27759;DHT22;15148;48.972;12.794;2023-09-19T01:13:08;15.10;99.90
27759;DHT22;15148;48.972;12.794;2023-09-19T01:18:27;15.10;99.90
27759;DHT22;15148;48.972;12.794;2023-09-19T01:23:57;15.10;99.90
27759;DHT22;15148;48.972;12.794;2023-09-19T01:29:17;15.10;99.90
27759;DHT22;15148;48.972;12.794;2023-09-19T01:34:54;15.10;99.90
27759;DHT22;15148;48.972;12.794;2023-09-19T01:40:05;15.10;99.90
27759;DHT22;15148;48.972;12.794;2023-09-19T01:51:00;15.20;99.90
27759;DHT22;15148;48.972;12.794;2023-09-19T01:56:05;15.20;99.90
27759;DHT22;15148;48.972;12.794;2023-09-19T02:01:11;15.20;99.90
27759;DHT22;15148;48.972;12.794;2023-09-19T02:06:18;15.30;99.90
27759;DHT22;15148;48.972;12.794;2023-09-19T02:11:20;15.30;99.90
27759;DHT22;15148;48.972;12.794;2023-09-19T02:16:22;15.30;99.90
27759;DHT22;15148;48.972;12.794;2023-09-19T02:21:24;15.40;99.90
27759;DHT22;15148;48.972;12.794;2023-09-19T02:26:26;15.40;99.90
27759;DHT22;15148;48.972;12.794;2023-09-19T02:31:29;15.40;99.90
27759;DHT22;15148;48.972;12.794;2023-09-19T02:36:31;15.40;99.90
27759;DHT22;15148;48.972;12.794;2023-09-19T02:41:33;15.40;99.90
27759;DHT22;15148;48.972;12.794;2023-09-19T02:46:35;15.40;99.90
27759;DHT22;15148;48.972;12.794;2023-09-19T02:51:40;15.40;99.90
27759;DHT22;15148;48.972;12.794;2023-09-19T02:56:42;15.40;99.90
27759;DHT22;15148;48.972;12.794;2023-09-19T03:01:43;15.40;99.90
27759;DHT22;15148;48.972;12.794;2023-09-19T03:06:46;15.40;99.90
27759;DHT22;15148;48.972;12.794;2023-09-19T03:11:50;15.40;99.90
27759;DHT22;15148;48.972;12.794;2023-09-19T03:16:53;15.40;99.90
27759;DHT22;15148;48.972;12.794;2023-09-19T03:21:55;15.40;99.90
27759;DHT22;15148;48.972;12.794;2023-09-19T03:26:59;15.40;99.90
27759;DHT22;15148;48.972;12.794;2023-09-19T03:32:01;15.40;99.90
27759;DHT22;15148;48.972;12.794;2023-09-19T03:37:04;15.50;99.90
27759;DHT22;15148;48.972;12.794;2023-09-19T03:42:06;15.50;99.90
27759;DHT22;15148;48.972;12.794;2023-09-19T03:47:09;15.50;99.90
27759;DHT22;15148;48.972;12.794;2023-09-19T03:52:12;15.50;99.90
27759;DHT22;15148;48.972;12.794;2023-09-19T03:57:14;15.50;99.90
27759;DHT22;15148;48.972;12.794;2023-09-19T04:02:20;15.60;99.90
27759;DHT22;15148;48.972;12.794;2023-09-19T04:07:26;15.50;99.90
27759;DHT22;15148;48.972;12.794;2023-09-19T04:12:30;15.60;99.90
27759;DHT22;15148;48.972;12.794;2023-09-19T04:17:33;15.60;99.90
27759;DHT22;15148;48.972;12.794;2023-09-19T04:22:35;15.60;99.90
27759;DHT22;15148;48.972;12.794;2023-09-19T04:27:37;15.60;99.90
27759;DHT22;15148;48.972;12.794;2023-09-19T04:32:40;15.60;99.90
27759;DHT22;15148;48.972;12.794;2023-09-19T04:37:42;15.60;99.90
27759;DHT22;15148;48.972;12.794;2023-09-19T04:42:44;15.70;99.90
27759;DHT22;15148;48.972;12.794;2023-09-19T04:47:46;15.70;99.90
27759;DHT22;15148;48.972;12.794;2023-09-19T04:52:51;15.70;99.90
27759;DHT22;15148;48.972;12.794;2023-09-19T04:57:54;15.70;99.90
27759;DHT22;15148;48.972;12.794;2023-09-19T05:02:57;15.80;99.90
27759;DHT22;15148;48.972;12.794;2023-09-19T05:07:59;15.80;99.90
27759;DHT22;15148;48.972;12.794;2023-09-19T05:13:07;15.80;99.90
27759;DHT22;15148;48.972;12.794;2023-09-19T05:18:09;15.80;99.90
27759;DHT22;15148;48.972;12.794;2023-09-19T05:23:12;15.80;99.90
27759;DHT22;15148;48.972;12.794;2023-09-19T05:28:14;15.90;99.90
27759;DHT22;15148;48.972;12.794;2023-09-19T05:33:16;15.90;99.90
27759;DHT22;15148;48.972;12.794;2023-09-19T05:38:20;15.90;99.90
27759;DHT22;15148;48.972;12.794;2023-09-19T05:43:21;15.90;99.90
27759;DHT22;15148;48.972;12.794;2023-09-19T05:48:23;16.00;99.90
27759;DHT22;15148;48.972;12.794;2023-09-19T05:53:25;16.00;99.90
27759;DHT22;15148;48.972;12.794;2023-09-19T05:58:27;16.00;99.90
27759;DHT22;15148;48.972;12.794;2023-09-19T06:03:29;16.10;99.90
27759;DHT22;15148;48.972;12.794;2023-09-19T06:08:32;16.10;99.90
27759;DHT22;15148;48.972;12.794;2023-09-19T06:13:35;16.10;99.90
27759;DHT22;15148;48.972;12.794;2023-09-19T06:18:37;16.10;99.90
27759;DHT22;15148;48.972;12.794;2023-09-19T06:23:39;16.20;99.90
27759;DHT22;15148;48.972;12.794;2023-09-19T06:28:41;16.20;99.90
27759;DHT22;15148;48.972;12.794;2023-09-19T06:33:44;16.20;99.90
27759;DHT22;15148;48.972;12.794;2023-09-19T06:38:46;16.20;99.90
27759;DHT22;15148;48.972;12.794;2023-09-19T06:43:48;16.30;99.90
27759;DHT22;15148;48.972;12.794;2023-09-19T06:48:50;16.30;99.90
27759;DHT22;15148;48.972;12.794;2023-09-19T06:53:53;16.30;99.90
27759;DHT22;15148;48.972;12.794;2023-09-19T06:58:56;16.30;99.90
27759;DHT22;15148;48.972;12.794;2023-09-19T07:03:58;16.30;99.90
27759;DHT22;15148;48.972;12.794;2023-09-19T07:09:00;16.40;99.90
27759;DHT22;15148;48.972;12.794;2023-09-19T07:14:02;16.50;99.90
27759;DHT22;15148;48.972;12.794;2023-09-19T07:19:05;16.60;99.90
27759;DHT22;15148;48.972;12.794;2023-09-19T07:24:08;16.70;99.90
27759;DHT22;15148;48.972;12.794;2023-09-19T07:29:09;16.70;99.90
27759;DHT22;15148;48.972;12.794;2023-09-19T07:34:11;16.70;99.90
27759;DHT22;15148;48.972;12.794;2023-09-19T07:39:13;16.70;99.90
27759;DHT22;15148;48.972;12.794;2023-09-19T07:44:24;16.70;99.90
27759;DHT22;15148;48.972;12.794;2023-09-19T07:49:27;16.70;99.90
27759;DHT22;15148;48.972;12.794;2023-09-19T07:54:29;16.80;99.90
27759;DHT22;15148;48.972;12.794;2023-09-19T07:59:37;16.90;99.90
27759;DHT22;15148;48.972;12.794;2023-09-19T08:04:44;17.00;99.90
27759;DHT22;15148;48.972;12.794;2023-09-19T08:09:48;17.00;99.90
27759;DHT22;15148;48.972;12.794;2023-09-19T08:14:50;17.10;99.90
27759;DHT22;15148;48.972;12.794;2023-09-19T08:19:52;17.30;99.90
27759;DHT22;15148;48.972;12.794;2023-09-19T08:24:54;17.40;99.90
27759;DHT22;15148;48.972;12.794;2023-09-19T08:29:58;17.40;99.90
27759;DHT22;15148;48.972;12.794;2023-09-19T08:34:59;17.50;99.90
27759;DHT22;15148;48.972;12.794;2023-09-19T08:40:02;17.70;99.90
27759;DHT22;15148;48.972;12.794;2023-09-19T08:45:05;17.80;99.90
27759;DHT22;15148;48.972;12.794;2023-09-19T08:50:19;17.80;99.90
27759;DHT22;15148;48.972;12.794;2023-09-19T08:55:25;17.70;99.90
27759;DHT22;15148;48.972;12.794;2023-09-19T09:00:28;17.70;99.90
27759;DHT22;15148;48.972;12.794;2023-09-19T09:05:31;17.80;99.90
27759;DHT22;15148;48.972;12.794;2023-09-19T09:10:34;17.80;99.90
27759;DHT22;15148;48.972;12.794;2023-09-19T09:15:36;17.80;99.90
27759;DHT22;15148;48.972;12.794;2023-09-19T09:20:39;17.80;99.90
27759;DHT22;15148;48.972;12.794;2023-09-19T09:26:07;17.90;99.90
27759;DHT22;15148;48.972;12.794;2023-09-19T09:31:23;17.90;99.90
27759;DHT22;15148;48.972;12.794;2023-09-19T09:36:36;18.10;99.90
27759;DHT22;15148;48.972;12.794;2023-09-19T09:41:39;18.30;99.90
27759;DHT22;15148;48.972;12.794;2023-09-19T09:46:48;18.60;99.90
27759;DHT22;15148;48.972;12.794;2023-09-19T09:52:07;18.70;99.90
27759;DHT22;15148;48.972;12.794;2023-09-19T09:57:13;18.70;99.90
27759;DHT22;15148;48.972;12.794;2023-09-19T10:02:35;18.60;99.90
27759;DHT22;15148;48.972;12.794;2023-09-19T10:07:43;18.60;99.90
27759;DHT22;15148;48.972;12.794;2023-09-19T10:12:55;18.50;99.90
27759;DHT22;15148;48.972;12.794;2023-09-19T10:18:04;18.30;99.90
27759;DHT22;15148;48.972;12.794;2023-09-19T10:23:11;18.30;99.90
27759;DHT22;15148;48.972;12.794;2023-09-19T10:28:15;18.20;99.90
27759;DHT22;15148;48.972;12.794;2023-09-19T10:33:20;18.20;99.90
27759;DHT22;15148;48.972;12.794;2023-09-19T10:38:25;18.20;99.90
27759;DHT22;15148;48.972;12.794;2023-09-19T10:43:31;18.20;99.90
27759;DHT22;15148;48.972;12.794;2023-09-19T10:48:41;18.20;99.90
27759;DHT22;15148;48.972;12.794;2023-09-19T10:53:52;18.20;99.90
27759;DHT22;15148;48.972;12.794;2023-09-19T10:59:09;18.00;99.90
27759;DHT22;15148;48.972;12.794;2023-09-19T11:09:49;17.40;99.90
27759;DHT22;15148;48.972;12.794;2023-09-19T11:15:00;17.20;99.90
27759;DHT22;15148;48.972;12.794;2023-09-19T11:30:35;17.00;99.90
27759;DHT22;15148;48.972;12.794;2023-09-19T11:36:07;17.00;99.90
27759;DHT22;15148;48.972;12.794;2023-09-19T11:46:28;17.00;99.90
27759;DHT22;15148;48.972;12.794;2023-09-19T11:51:40;17.00;99.90
27759;DHT22;15148;48.972;12.794;2023-09-19T11:56:45;17.00;99.90
27759;DHT22;15148;48.972;12.794;2023-09-19T12:01:52;17.20;99.90
27759;DHT22;15148;48.972;12.794;2023-09-19T12:07:00;17.30;99.90
27759;DHT22;15148;48.972;12.794;2023-09-19T12:12:02;17.50;99.90
27759;DHT22;15148;48.972;12.794;2023-09-19T12:17:05;17.60;99.90
27759;DHT22;15148;48.972;12.794;2023-09-19T12:22:07;17.70;99.90
27759;DHT22;15148;48.972;12.794;2023-09-19T12:27:12;17.80;99.90
27759;DHT22;15148;48.972;12.794;2023-09-19T12:32:15;17.90;99.90
27759;DHT22;15148;48.972;12.794;2023-09-19T12:37:23;18.10;99.90
27759;DHT22;15148;48.972;12.794;2023-09-19T12:42:29;18.30;99.90
27759;DHT22;15148;48.972;12.794;2023-09-19T12:47:34;18.40;99.90
27759;DHT22;15148;48.972;12.794;2023-09-19T12:52:41;18.60;99.90
27759;DHT22;15148;48.972;12.794;2023-09-19T12:57:44;18.60;99.90
27759;DHT22;15148;48.972;12.794;2023-09-19T13:08:28;18.80;99.90
27759;DHT22;15148;48.972;12.794;2023-09-19T13:13:37;19.00;99.90
27759;DHT22;15148;48.972;12.794;2023-09-19T13:18:44;19.20;99.90
27759;DHT22;15148;48.972;12.794;2023-09-19T13:23:47;19.30;99.90
27759;DHT22;15148;48.972;12.794;2023-09-19T13:28:49;19.50;99.90
27759;DHT22;15148;48.972;12.794;2023-09-19T13:33:51;19.50;99.90
27759;DHT22;15148;48.972;12.794;2023-09-19T13:38:53;19.60;99.90
27759;DHT22;15148;48.972;12.794;2023-09-19T13:43:55;19.70;99.90
27759;DHT22;15148;48.972;12.794;2023-09-19T13:48:59;19.90;99.90
27759;DHT22;15148;48.972;12.794;2023-09-19T13:54:01;19.90;99.90
27759;DHT22;15148;48.972;12.794;2023-09-19T13:59:02;19.90;99.90
27759;DHT22;15148;48.972;12.794;2023-09-19T14:04:04;19.80;99.90
27759;DHT22;15148;48.972;12.794;2023-09-19T14:09:07;19.70;99.90
27759;DHT22;15148;48.972;12.794;2023-09-19T14:14:09;19.70;99.90
27759;DHT22;15148;48.972;12.794;2023-09-19T14:19:11;19.70;99.90
27759;DHT22;15148;48.972;12.794;2023-09-19T14:24:17;19.50;99.90
27759;DHT22;15148;48.972;12.794;2023-09-19T14:29:19;19.40;99.90
27759;DHT22;15148;48.972;12.794;2023-09-19T14:34:21;19.40;99.90
27759;DHT22;15148;48.972;12.794;2023-09-19T14:39:23;19.50;99.90
27759;DHT22;15148;48.972;12.794;2023-09-19T14:44:25;19.50;99.90
27759;DHT22;15148;48.972;12.794;2023-09-19T14:49:27;19.40;99.90
27759;DHT22;15148;48.972;12.794;2023-09-19T14:54:29;19.40;99.90
27759;DHT22;15148;48.972;12.794;2023-09-19T14:59:32;19.40;99.90
27759;DHT22;15148;48.972;12.794;2023-09-19T15:04:34;19.40;99.90
27759;DHT22;15148;48.972;12.794;2023-09-19T15:09:36;19.30;99.90
27759;DHT22;15148;48.972;12.794;2023-09-19T15:14:38;19.20;99.90
27759;DHT22;15148;48.972;12.794;2023-09-19T15:19:42;19.10;99.90
27759;DHT22;15148;48.972;12.794;2023-09-19T15:24:44;19.00;99.90
27759;DHT22;15148;48.972;12.794;2023-09-19T15:29:46;18.90;99.90
27759;DHT22;15148;48.972;12.794;2023-09-19T15:34:48;18.70;99.90
27759;DHT22;15148;48.972;12.794;2023-09-19T15:39:50;18.60;99.90
27759;DHT22;15148;48.972;12.794;2023-09-19T15:44:56;18.50;99.90
27759;DHT22;15148;48.972;12.794;2023-09-19T15:49:58;18.40;99.90
27759;DHT22;15148;48.972;12.794;2023-09-19T15:55:02;18.30;99.90
27759;DHT22;15148;48.972;12.794;2023-09-19T16:00:06;18.20;99.90
27759;DHT22;15148;48.972;12.794;2023-09-19T16:05:14;18.10;99.90
27759;DHT22;15148;48.972;12.794;2023-09-19T16:10:16;18.10;99.90
27759;DHT22;15148;48.972;12.794;2023-09-19T16:15:18;18.00;99.90
27759;DHT22;15148;48.972;12.794;2023-09-19T16:20:20;17.90;99.90
27759;DHT22;15148;48.972;12.794;2023-09-19T16:25:24;17.80;99.90
27759;DHT22;15148;48.972;12.794;2023-09-19T16:30:27;17.70;99.90
27759;DHT22;15148;48.972;12.794;2023-09-19T16:35:29;17.50;99.90
27759;DHT22;15148;48.972;12.794;2023-09-19T16:40:31;17.30;99.90
27759;DHT22;15148;48.972;12.794;2023-09-19T16:45:33;17.00;99.90
27759;DHT22;15148;48.972;12.794;2023-09-19T16:50:36;16.90;99.90
27759;DHT22;15148;48.972;12.794;2023-09-19T16:55:41;16.60;99.90
27759;DHT22;15148;48.972;12.794;2023-09-19T17:00:44;16.50;99.90
27759;DHT22;15148;48.972;12.794;2023-09-19T17:05:48;16.30;99.90
27759;DHT22;15148;48.972;12.794;2023-09-19T17:10:51;16.20;99.90
27759;DHT22;15148;48.972;12.794;2023-09-19T17:16:03;16.10;99.90
27759;DHT22;15148;48.972;12.794;2023-09-19T17:21:05;15.90;99.90
27759;DHT22;15148;48.972;12.794;2023-09-19T17:26:10;15.80;99.90
27759;DHT22;15148;48.972;12.794;2023-09-19T17:31:13;15.60;99.90
27759;DHT22;15148;48.972;12.794;2023-09-19T17:36:18;15.50;99.90
27759;DHT22;15148;48.972;12.794;2023-09-19T17:41:22;15.40;99.90
27759;DHT22;15148;48.972;12.794;2023-09-19T17:46:25;15.30;99.90
27759;DHT22;15148;48.972;12.794;2023-09-19T17:51:28;15.20;99.90
27759;DHT22;15148;48.972;12.794;2023-09-19T17:56:30;15.10;99.90
27759;DHT22;15148;48.972;12.794;2023-09-19T18:01:32;15.10;99.90
27759;DHT22;15148;48.972;12.794;2023-09-19T18:06:35;15.00;99.90
27759;DHT22;15148;48.972;12.794;2023-09-19T18:11:39;14.90;99.90
27759;DHT22;15148;48.972;12.794;2023-09-19T18:16:46;14.90;99.90
27759;DHT22;15148;48.972;12.794;2023-09-19T18:21:49;14.80;99.90
27759;DHT22;15148;48.972;12.794;2023-09-19T18:26:52;14.80;99.90
27759;DHT22;15148;48.972;12.794;2023-09-19T18:31:54;14.70;99.90
27759;DHT22;15148;48.972;12.794;2023-09-19T18:36:59;14.70;99.90
27759;DHT22;15148;48.972;12.794;2023-09-19T18:42:01;14.60;99.90
27759;DHT22;15148;48.972;12.794;2023-09-19T18:47:04;14.60;99.90
27759;DHT22;15148;48.972;12.794;2023-09-19T18:52:06;14.60;99.90
27759;DHT22;15148;48.972;12.794;2023-09-19T18:57:10;14.50;99.90
27759;DHT22;15148;48.972;12.794;2023-09-19T19:02:13;14.50;99.90
27759;DHT22;15148;48.972;12.794;2023-09-19T19:07:16;14.50;99.90
27759;DHT22;15148;48.972;12.794;2023-09-19T19:12:23;14.40;99.90
27759;DHT22;15148;48.972;12.794;2023-09-19T19:17:29;14.40;99.90
27759;DHT22;15148;48.972;12.794;2023-09-19T19:22:33;14.30;99.90
27759;DHT22;15148;48.972;12.794;2023-09-19T19:27:38;14.30;99.90
27759;DHT22;15148;48.972;12.794;2023-09-19T19:32:40;14.30;99.90
27759;DHT22;15148;48.972;12.794;2023-09-19T19:37:43;14.30;99.90
27759;DHT22;15148;48.972;12.794;2023-09-19T19:42:47;14.30;99.90
27759;DHT22;15148;48.972;12.794;2023-09-19T19:47:49;14.20;99.90
27759;DHT22;15148;48.972;12.794;2023-09-19T19:52:52;14.20;99.90
27759;DHT22;15148;48.972;12.794;2023-09-19T19:58:01;14.00;99.90
27759;DHT22;15148;48.972;12.794;2023-09-19T20:03:03;14.00;99.90
27759;DHT22;15148;48.972;12.794;2023-09-19T20:08:06;13.90;99.90
27759;DHT22;15148;48.972;12.794;2023-09-19T20:13:10;13.70;99.90
27759;DHT22;15148;48.972;12.794;2023-09-19T20:18:13;13.60;99.90
27759;DHT22;15148;48.972;12.794;2023-09-19T20:23:15;13.60;99.90
27759;DHT22;15148;48.972;12.794;2023-09-19T20:28:20;13.60;99.90
27759;DHT22;15148;48.972;12.794;2023-09-19T20:33:23;13.70;99.90
27759;DHT22;15148;48.972;12.794;2023-09-19T20:38:25;13.60;99.90
27759;DHT22;15148;48.972;12.794;2023-09-19T20:43:32;13.60;99.90
27759;DHT22;15148;48.972;12.794;2023-09-19T20:48:46;13.50;99.90
27759;DHT22;15148;48.972;12.794;2023-09-19T20:53:52;13.50;99.90
27759;DHT22;15148;48.972;12.794;2023-09-19T20:58:55;13.50;99.90
27759;DHT22;15148;48.972;12.794;2023-09-19T21:03:57;13.40;99.90
27759;DHT22;15148;48.972;12.794;2023-09-19T21:08:59;13.40;99.90
27759;DHT22;15148;48.972;12.794;2023-09-19T21:14:02;13.30;99.90
27759;DHT22;15148;48.972;12.794;2023-09-19T21:19:05;13.30;99.90
27759;DHT22;15148;48.972;12.794;2023-09-19T21:24:09;13.40;99.90
27759;DHT22;15148;48.972;12.794;2023-09-19T21:29:13;13.30;99.90
27759;DHT22;15148;48.972;12.794;2023-09-19T21:34:15;13.30;99.90
27759;DHT22;15148;48.972;12.794;2023-09-19T21:39:17;13.30;99.90
27759;DHT22;15148;48.972;12.794;2023-09-19T21:44:19;13.30;99.90
27759;DHT22;15148;48.972;12.794;2023-09-19T21:49:21;13.40;99.90
27759;DHT22;15148;48.972;12.794;2023-09-19T21:54:23;13.30;99.90
27759;DHT22;15148;48.972;12.794;2023-09-19T21:59:25;13.30;99.90
27759;DHT22;15148;48.972;12.794;2023-09-19T22:04:27;13.30;99.90
27759;DHT22;15148;48.972;12.794;2023-09-19T22:09:29;13.20;99.90
27759;DHT22;15148;48.972;12.794;2023-09-19T22:14:32;13.20;99.90
27759;DHT22;15148;48.972;12.794;2023-09-19T22:19:34;13.20;99.90
27759;DHT22;15148;48.972;12.794;2023-09-19T22:24:40;13.10;99.90
27759;DHT22;15148;48.972;12.794;2023-09-19T22:29:42;13.10;99.90
27759;DHT22;15148;48.972;12.794;2023-09-19T22:34:45;13.10;99.90
27759;DHT22;15148;48.972;12.794;2023-09-19T22:39:49;13.10;99.90
27759;DHT22;15148;48.972;12.794;2023-09-19T22:44:52;13.10;99.90
27759;DHT22;15148;48.972;12.794;2023-09-19T22:49:54;13.00;99.90
27759;DHT22;15148;48.972;12.794;2023-09-19T22:54:56;13.00;99.90
27759;DHT22;15148;48.972;12.794;2023-09-19T23:00:00;13.00;99.90
27759;DHT22;15148;48.972;12.794;2023-09-19T23:05:02;13.00;99.90
27759;DHT22;15148;48.972;12.794;2023-09-19T23:10:08;12.90;99.90
27759;DHT22;15148;48.972;12.794;2023-09-19T23:15:12;13.00;99.90
27759;DHT22;15148;48.972;12.794;2023-09-19T23:20:19;13.00;99.90
27759;DHT22;15148;48.972;12.794;2023-09-19T23:25:26;12.90;99.90
27759;DHT22;15148;48.972;12.794;2023-09-19T23:30:29;13.00;99.90
27759;DHT22;15148;48.972;12.794;2023-09-19T23:35:34;12.90;99.90
27759;DHT22;15148;48.972;12.794;2023-09-19T23:40:36;12.90;99.90
27759;DHT22;15148;48.972;12.794;2023-09-19T23:45:40;12.80;99.90
27759;DHT22;15148;48.972;12.794;2023-09-19T23:50:43;12.90;99.90
27759;DHT22;15148;48.972;12.794;2023-09-19T23:55:47;12.90;99.90
